Latest Weather Observations for Bundaberg

IDQ60801

Issued at 4:32 pm EST Sunday 21 December 2014 (issued every 30 minutes, with the page automatically refreshed every 10 minutes)

About weather observations | Map of weather stations | Latest weather observations for QLD | Other Formats
Station Details ID: 039128 Name: BUNDABERG AERO Lat: -24.91 Lon: 152.32 Height: 30.82 m
Data from the previous 72 hours. | See also: Recent months at Bundaberg
Date/Time
EST
Temp
°C
App
Temp
°C
Dew
Point
Rel
Hum
%
Delta-T
°C
Wind Press
QNH
hPa
Press
MSL
hPa
Rain
since 9 am
mm
Dir
 
Spd
km/h
Gust
km/h
Spd
kts
Gust
kts
21/04:30pm 27.7 26.5 18.4 57 5.9 ENE 22 30 12 16 1014.2 1014.0 0.0
21/04:00pm 28.0 26.4 18.4 56 6.1 ENE 24 33 13 18 1014.3 1014.1 0.0
21/03:30pm 28.9 27.5 18.9 54 6.5 E 24 33 13 18 1014.5 1014.3 0.0
21/03:00pm 28.7 27.3 18.8 55 6.4 E 24 35 13 19 1014.6 1014.4 0.0
21/02:30pm 28.7 27.8 18.2 53 6.7 E 20 28 11 15 1014.9 1014.7 0.0
21/02:00pm 29.1 27.7 17.9 50 7.1 ESE 22 30 12 16 1015.0 1014.8 0.0
21/01:30pm 28.4 27.2 17.6 52 6.8 ESE 20 32 11 17 1015.2 1015.0 0.0
21/01:00pm 29.1 28.2 18.2 51 7.0 ESE 20 28 11 15 1015.6 1015.4 0.0
21/12:30pm 29.3 29.0 19.6 56 6.3 E 20 30 11 16 1015.8 1015.6 0.0
21/12:00pm 28.7 27.7 19.6 58 5.9 E 24 35 13 19 1016.2 1016.0 0.0
21/11:30am 28.4 27.2 20.1 60 5.4 E 26 33 14 18 1016.6 1016.4 0.0
21/11:00am 28.4 27.6 19.3 57 5.9 E 22 32 12 17 1016.7 1016.5 0.0
21/10:30am 27.7 27.2 19.0 59 5.6 ESE 20 30 11 16 1016.9 1016.7 0.0
21/10:00am 27.6 27.0 19.7 62 5.1 E 22 32 12 17 1017.0 1016.8 0.0
21/09:30am 27.6 26.9 20.2 64 4.9 E 24 32 13 17 1016.9 1016.7 0.0
21/09:00am 25.4 25.6 20.2 73 3.4 E 19 24 10 13 1017.0 1016.8 0.2
21/08:30am 25.8 26.5 20.4 72 3.5 ENE 17 24 9 13 1016.9 1016.7 0.2
21/08:00am 26.1 26.7 20.2 70 3.8 ENE 17 24 9 13 1016.8 1016.6 0.2
21/07:30am 24.4 26.5 20.9 81 2.3 S 11 13 6 7 1016.7 1016.5 0.2
21/07:00am 24.2 26.9 21.3 84 1.9 S 9 11 5 6 1016.4 1016.2 0.2
21/06:30am 22.8 25.3 21.1 90 1.1 SSW 9 13 5 7 1015.9 1015.7 0.2
21/06:00am 22.5 24.5 20.8 90 1.1 S 11 15 6 8 1015.6 1015.4 0.2
21/05:30am 22.0 23.4 20.3 90 1.1 S 13 15 7 8 1015.1 1014.9 0.2
21/05:00am 21.5 22.8 19.2 87 1.5 S 11 15 6 8 1015.0 1014.8 0.2
21/04:30am 21.4 23.2 18.8 85 1.6 S 7 11 4 6 1014.6 1014.4 0.2
21/04:00am 22.0 25.3 19.2 84 1.8 CALM 0 0 0 0 1014.2 1014.0 0.2
21/03:30am 21.9 23.5 19.1 84 1.8 NE 9 13 5 7 1014.2 1014.0 0.2
21/03:00am 22.4 22.3 19.9 86 1.6 NE 20 24 11 13 1014.3 1014.1 0.2
21/02:30am 24.1 26.5 20.0 78 2.7 E 7 11 4 6 1014.1 1013.9 0.0
21/02:00am 24.1 26.4 19.8 77 2.8 ENE 7 9 4 5 1014.4 1014.2 0.0
21/01:30am 24.0 26.1 20.1 79 2.5 ESE 9 11 5 6 1014.6 1014.4 0.0
21/01:00am 24.1 26.1 20.0 78 2.7 E 9 11 5 6 1014.8 1014.6 0.0
21/12:30am 24.2 26.6 20.1 78 2.7 E 7 9 4 5 1015.0 1014.8 0.0
21/12:00am 23.9 25.7 19.6 77 2.8 E 9 13 5 7 1015.4 1015.2 0.0
 
Date/Time
EST
Temp
°C
App
Temp
°C
Dew
Point
Rel
Hum
%
Delta-T
°C
Wind Press
QNH
hPa
Press
MSL
hPa
Rain
since 9 am
mm
Dir
 
Spd
km/h
Gust
km/h
Spd
kts
Gust
kts
20/11:30pm 23.6 25.0 19.5 78 2.6 SE 11 15 6 8 1016.0 1015.8 0.0
20/11:00pm 24.0 25.4 19.5 76 2.9 ENE 11 17 6 9 1015.6 1015.4 0.0
20/10:30pm 23.9 25.3 19.6 77 2.8 E 11 15 6 8 1015.7 1015.5 0.0
20/10:00pm 24.2 25.3 19.7 76 2.9 E 13 17 7 9 1015.7 1015.5 0.0
20/09:30pm 24.4 25.5 19.7 75 3.0 E 13 17 7 9 1015.7 1015.5 0.0
20/09:00pm 24.4 24.7 19.5 74 3.1 E 17 20 9 11 1015.4 1015.2 0.0
20/08:30pm 24.8 25.0 19.4 72 3.5 ESE 17 20 9 11 1015.2 1015.0 0.0
20/08:00pm 24.8 25.1 19.6 73 3.3 ESE 17 20 9 11 1014.7 1014.5 0.0
20/07:30pm 25.0 25.3 19.6 72 3.5 E 17 22 9 12 1014.3 1014.1 0.0
20/07:00pm 25.4 25.8 19.8 71 3.6 E 17 22 9 12 1013.9 1013.7 0.0
20/06:30pm 26.1 25.9 19.7 68 4.1 E 20 28 11 15 1013.3 1013.1 0.0
20/06:00pm 26.8 25.4 19.7 65 4.6 E 26 32 14 17 1012.7 1012.5 0.0
20/05:30pm 27.6 26.9 19.4 61 5.3 E 22 32 12 17 1012.3 1012.1 0.0
20/05:00pm 28.4 27.4 19.6 59 5.7 E 24 32 13 17 1012.0 1011.8 0.0
20/04:30pm 28.5 27.5 19.7 59 5.7 ENE 24 32 13 17 1011.7 1011.5 0.0
20/04:00pm 28.8 27.4 19.7 58 5.9 ENE 26 32 14 17 1011.7 1011.5 0.0
20/03:30pm 29.4 29.2 20.5 58 5.9 ENE 22 32 12 17 1011.9 1011.7 0.0
20/03:00pm 29.5 28.9 19.8 56 6.4 E 22 32 12 17 1012.1 1011.9 0.0
20/02:30pm 29.8 29.0 19.2 53 6.9 E 22 30 12 16 1012.3 1012.1 0.0
20/02:00pm 29.6 29.1 19.9 56 6.4 E 22 32 12 17 1012.4 1012.2 0.0
20/01:30pm 29.7 29.1 19.7 55 6.6 E 22 32 12 17 1012.9 1012.7 0.0
20/01:00pm 29.8 29.1 19.5 54 6.7 E 22 32 12 17 1013.2 1013.0 0.0
20/12:30pm 29.7 29.1 19.7 55 6.6 E 22 30 12 16 1013.5 1013.3 0.0
20/12:00pm 29.7 29.0 20.3 57 6.2 E 24 32 13 17 1013.8 1013.6 0.0
20/11:30am 29.2 28.1 18.6 52 6.8 ESE 22 32 12 17 1014.3 1014.1 0.0
20/11:00am 29.9 30.1 20.5 57 6.2 E 20 37 11 20 1014.6 1014.4 0.0
20/10:30am 28.6 27.9 19.5 58 5.9 E 22 30 12 16 1014.8 1014.6 0.0
20/10:00am 28.6 28.4 19.8 59 5.8 ESE 20 30 11 16 1015.0 1014.8 0.0
20/09:30am 28.5 28.5 20.2 60 5.5 E 20 30 11 16 1014.9 1014.7 0.0
20/09:00am 27.8 27.4 20.1 63 5.0 ESE 22 28 12 15 1014.8 1014.6 0.0
20/08:30am 27.7 27.2 20.8 66 4.6 ESE 24 35 13 19 1014.8 1014.6 0.0
20/08:00am 27.0 28.3 22.6 77 3.0 SE 20 26 11 14 1014.8 1014.6 0.0
20/07:30am 24.9 25.9 21.8 83 2.1 SE 19 24 10 13 1014.6 1014.4 0.0
20/07:13am 24.2 26.5 22.1 88 1.4 SSE 13 22 7 12 1014.6 1014.4 0.0
20/07:00am 23.3 26.0 22.1 93 0.8 SSE 11 17 6 9 1014.3 1014.1 0.0
20/06:38am 22.6 24.9 22.1 97 0.3 SSE 13 19 7 10 1014.2 1014.0 0.0
20/06:37am 22.5 24.8 22.0 97 0.3 SSE 13 20 7 11 1014.2 1014.0 0.0
20/06:30am 22.6 25.1 22.4 99 0.1 SSE 13 20 7 11 1014.1 1013.9 0.0
20/06:27am 22.5 25.3 22.3 99 0.1 SSE 11 17 6 9 1014.0 1013.8 0.0
20/06:11am 21.8 24.2 21.6 99 0.1 SSE 11 15 6 8 1013.7 1013.5 0.0
20/06:00am 21.4 23.6 21.2 99 0.1 SSE 11 17 6 9 1013.5 1013.3 0.0
20/05:34am 20.6 22.4 20.3 98 0.2 S 11 17 6 9 1013.2 1013.0 0.0
20/05:33am 20.7 22.5 20.4 98 0.2 S 11 17 6 9 1013.2 1013.0 0.0
20/05:30am 20.7 22.9 20.4 98 0.2 S 9 15 5 8 1013.0 1012.8 0.0
20/05:21am 20.6 23.1 20.3 98 0.2 SSW 7 11 4 6 1012.9 1012.7 0.0
20/05:00am 20.8 23.4 20.5 98 0.2 SE 7 9 4 5 1012.5 1012.3 0.0
20/04:45am 20.7 23.3 20.5 99 0.1 SE 7 11 4 6 1012.3 1012.1 0.0
20/04:44am 20.8 23.0 20.5 98 0.2 SE 9 11 5 6 1012.3 1012.1 0.0
20/04:30am 20.7 22.9 20.4 98 0.2 SSE 9 11 5 6 1012.1 1011.9 0.0
20/04:14am 20.7 22.9 20.4 98 0.2 SSE 9 15 5 8 1012.0 1011.8 0.0
20/04:00am 20.7 22.9 20.4 98 0.2 SSE 9 13 5 7 1011.8 1011.6 0.0
20/03:30am 20.6 22.3 20.1 97 0.3 SSE 11 15 6 8 1011.6 1011.4 0.0
20/03:19am 20.5 22.0 19.8 96 0.4 SE 11 15 6 8 1011.5 1011.3 0.0
20/03:17am 20.7 22.3 20.0 96 0.4 SE 11 15 6 8 1011.5 1011.3 0.0
20/03:13am 20.8 22.5 20.1 96 0.4 SE 11 15 6 8 1011.5 1011.3 0.0
20/03:00am 20.9 23.0 20.2 96 0.4 SE 9 9 5 5 1011.5 1011.3 0.0
20/02:30am 21.4 25.4 20.6 95 0.5 CALM 0 0 0 0 1011.3 1011.1 0.0
20/02:00am 21.6 25.6 20.6 94 0.6 CALM 0 0 0 0 1011.2 1011.0 0.0
20/01:30am 22.1 25.7 21.3 95 0.5 WNW 4 7 2 4 1011.1 1010.9 0.0
20/01:00am 21.9 24.2 20.7 93 0.8 NW 9 9 5 5 1011.2 1011.0 0.0
20/12:30am 22.3 24.8 21.1 93 0.8 NW 9 11 5 6 1011.5 1011.3 0.0
20/12:00am 22.6 25.3 21.4 93 0.8 NW 9 13 5 7 1011.7 1011.5 0.0
 
Date/Time
EST
Temp
°C
App
Temp
°C
Dew
Point
Rel
Hum
%
Delta-T
°C
Wind Press
QNH
hPa
Press
MSL
hPa
Rain
since 9 am
mm
Dir
 
Spd
km/h
Gust
km/h
Spd
kts
Gust
kts
19/11:30pm 22.9 25.2 21.4 91 1.0 NW 11 13 6 7 1012.2 1012.0 0.0
19/11:00pm 23.6 26.1 21.7 89 1.3 NNW 11 13 6 7 1012.8 1012.6 0.0
19/10:30pm 23.8 26.5 22.1 90 1.1 NNW 11 15 6 8 1013.0 1012.8 0.0
19/10:00pm 23.7 26.2 21.8 89 1.3 NNW 11 13 6 7 1012.9 1012.7 0.0
19/09:30pm 24.5 27.0 21.8 85 1.8 NNE 11 13 6 7 1012.8 1012.6 0.0
19/09:00pm 24.0 26.8 21.5 86 1.7 NNW 9 11 5 6 1012.4 1012.2 0.0
19/08:30pm 24.7 27.5 21.6 83 2.1 N 9 11 5 6 1012.2 1012.0 0.0
19/08:00pm 25.0 27.5 21.7 82 2.2 NNE 11 13 6 7 1012.0 1011.8 0.0
19/07:30pm 25.5 27.7 21.2 77 2.8 N 11 15 6 8 1011.8 1011.6 0.0
19/07:00pm 25.5 27.4 21.4 78 2.7 N 13 17 7 9 1011.5 1011.3 0.0
19/06:30pm 26.4 27.7 20.9 72 3.6 N 15 19 8 10 1011.2 1011.0 0.0
19/06:00pm 28.0 29.3 20.8 65 4.8 N 15 19 8 10 1011.0 1010.8 0.0
19/05:30pm 30.3 31.8 15.6 41 9.1 SE 2 6 1 3 1010.6 1010.4 0.0
19/05:00pm 31.0 33.1 16.2 41 9.3 CALM 0 4 0 2 1010.3 1010.1 0.0
19/04:30pm 30.6 30.9 17.0 44 8.6 SSW 11 19 6 10 1010.1 1009.9 0.0
19/04:00pm 30.4 31.0 17.8 46 8.1 WSW 11 15 6 8 1010.0 1009.8 0.0
19/03:30pm 30.3 31.7 19.6 52 7.0 SW 11 17 6 9 1010.1 1009.9 0.0
19/03:00pm 29.4 30.6 19.1 54 6.7 S 11 19 6 10 1010.4 1010.2 0.0
19/02:30pm 28.5 30.4 19.7 59 5.7 WSW 9 17 5 9 1010.7 1010.5 0.0
19/02:00pm 27.9 29.2 19.4 60 5.5 W 11 19 6 10 1011.0 1010.8 0.0
19/01:30pm 27.5 29.3 19.6 62 5.1 WSW 9 17 5 9 1011.4 1011.2 0.0
19/01:00pm 25.9 27.1 19.1 66 4.4 WSW 11 17 6 9 1011.7 1011.5 0.0
19/12:30pm 24.8 26.6 19.6 73 3.4 WSW 9 15 5 8 1012.2 1012.0 0.0
19/12:00pm 24.2 25.9 19.3 74 3.1 W 9 15 5 8 1012.5 1012.3 0.0
19/11:30am 24.1 25.4 19.4 75 3.0 WNW 11 13 6 7 1012.7 1012.5 0.0
19/11:00am 23.7 25.5 19.6 78 2.6 NW 9 11 5 6 1012.9 1012.7 0.0
19/10:30am 23.2 25.3 19.4 79 2.4 W 7 11 4 6 1013.1 1012.9 0.0
19/10:00am 22.9 24.6 20.2 85 1.7 SW 11 17 6 9 1013.3 1013.1 0.0
19/09:30am 23.0 24.4 20.3 85 1.7 SW 13 17 7 9 1013.7 1013.5 0.0
19/09:00am 23.0 24.7 20.9 88 1.4 SSW 13 17 7 9 1013.5 1013.3 1.8
19/08:30am 23.0 24.2 20.7 87 1.5 SSW 15 22 8 12 1013.3 1013.1 1.8
19/08:00am 22.6 24.0 20.3 87 1.5 SSW 13 19 7 10 1013.1 1012.9 1.8
19/07:30am 21.9 24.0 20.2 90 1.1 S 9 13 5 7 1012.9 1012.7 1.8
19/07:00am 21.7 24.2 20.3 92 0.9 SSE 7 11 4 6 1012.7 1012.5 1.8
19/06:30am 21.3 23.5 20.3 94 0.6 SSE 9 15 5 8 1012.5 1012.3 1.8
19/06:00am 21.1 23.1 19.9 93 0.8 SSE 9 15 5 8 1012.3 1012.1 1.8
19/05:30am 21.3 23.2 19.8 91 1.0 S 9 13 5 7 1012.6 1012.4 1.4
19/05:00am 21.4 22.8 19.5 89 1.2 S 11 15 6 8 1012.2 1012.0 1.0
19/04:30am 21.8 23.2 19.5 87 1.5 S 11 17 6 9 1012.1 1011.9 1.0
19/04:00am 21.9 24.1 19.5 86 1.5 S 7 13 4 7 1012.0 1011.8 1.0
19/03:30am 22.2 23.6 19.6 85 1.7 S 11 15 6 8 1012.0 1011.8 1.0
19/03:00am 22.5 24.8 20.6 89 1.2 S 9 17 5 9 1011.9 1011.7 1.0
19/02:30am 22.7 25.2 21.0 90 1.1 S 9 15 5 8 1011.8 1011.6 1.0
19/02:00am 23.0 24.9 21.3 90 1.1 SSW 13 17 7 9 1012.1 1011.9 1.0
19/01:30am 23.2 25.8 22.0 93 0.8 SSW 11 17 6 9 1012.4 1012.2 1.0
19/01:08am 23.3 25.6 22.1 93 0.8 SW 13 17 7 9 1012.6 1012.4 1.0
19/01:00am 23.3 25.7 22.3 94 0.7 SW 13 17 7 9 1012.6 1012.4 1.0
19/12:30am 23.3 26.2 22.5 95 0.5 WSW 11 15 6 8 1012.7 1012.5 1.0
19/12:00am 23.1 25.5 22.3 95 0.5 W 13 17 7 9 1012.7 1012.5 1.0
 
Date/Time
EST
Temp
°C
App
Temp
°C
Dew
Point
Rel
Hum
%
Delta-T
°C
Wind Press
QNH
hPa
Press
MSL
hPa
Rain
since 9 am
mm
Dir
 
Spd
km/h
Gust
km/h
Spd
kts
Gust
kts
18/11:55pm 23.2 25.7 22.4 95 0.5 W 13 17 7 9 1012.6 1012.4 1.0
18/11:30pm 23.2 26.3 22.2 94 0.7 W 9 11 5 6 1012.4 1012.2 0.8
18/11:00pm 23.3 26.4 22.1 93 0.8 WSW 9 15 5 8 1012.5 1012.3 0.8
18/10:30pm 23.4 25.3 22.0 92 0.9 WSW 15 20 8 11 1012.8 1012.6 0.8
18/10:00pm 23.7 25.7 21.6 88 1.4 WSW 13 20 7 11 1013.0 1012.8 0.8
18/09:30pm 25.2 27.5 22.1 83 2.1 WNW 13 19 7 10 1012.8 1012.6 0.0
18/09:00pm 25.9 28.1 22.6 82 2.2 WNW 15 22 8 12 1012.4 1012.2 0.0
18/08:30pm 25.9 26.5 22.8 83 2.1 NNW 24 30 13 16 1011.6 1011.4 0.0
18/08:00pm 26.0 25.8 22.7 82 2.2 N 28 33 15 18 1010.5 1010.3 0.0
18/07:30pm 26.0 26.2 22.7 82 2.2 N 26 33 14 18 1010.1 1009.9 0.0
18/07:00pm 26.0 26.1 22.5 81 2.4 N 26 35 14 19 1009.7 1009.5 0.0
18/06:30pm 26.3 26.0 22.6 80 2.5 N 28 37 15 20 1009.7 1009.5 0.0
18/06:00pm 26.9 26.1 22.3 76 3.1 N 30 39 16 21 1009.7 1009.5 0.0
18/05:30pm 26.9 25.7 22.3 76 3.1 N 32 41 17 22 1009.5 1009.3 0.0
18/05:00pm 27.0 25.6 22.2 75 3.2 N 33 41 18 22 1009.1 1008.9 0.0

Other Formats:

Comma delimited format used in spreadsheet applications
http://www.bom.gov.au/fwo/IDQ60801/IDQ60801.94387.axf

JavaScript Object Notation format (JSON) in row-major order
http://www.bom.gov.au/fwo/IDQ60801/IDQ60801.94387.json